sensor_id;sensor_type;location;lat;lon;timestamp;P1;durP1;ratioP1;P2;durP2;ratioP2
30247;SDS011;17063;50.892;4.702;2023-06-14T00:00:04;8.50;;;5.43;;
30247;SDS011;17063;50.892;4.702;2023-06-14T00:02:36;12.80;;;4.63;;
30247;SDS011;17063;50.892;4.702;2023-06-14T00:05:03;8.30;;;4.87;;
30247;SDS011;17063;50.892;4.702;2023-06-14T00:07:35;4.63;;;4.20;;
30247;SDS011;17063;50.892;4.702;2023-06-14T00:10:11;8.93;;;4.80;;
30247;SDS011;17063;50.892;4.702;2023-06-14T00:12:38;10.83;;;5.20;;
30247;SDS011;17063;50.892;4.702;2023-06-14T00:15:14;5.37;;;4.87;;
30247;SDS011;17063;50.892;4.702;2023-06-14T00:17:43;9.27;;;4.60;;
30247;SDS011;17063;50.892;4.702;2023-06-14T00:20:14;10.13;;;5.20;;
30247;SDS011;17063;50.892;4.702;2023-06-14T00:22:41;8.60;;;4.60;;
30247;SDS011;17063;50.892;4.702;2023-06-14T00:25:08;8.40;;;4.57;;
30247;SDS011;17063;50.892;4.702;2023-06-14T00:27:54;9.03;;;4.40;;
30247;SDS011;17063;50.892;4.702;2023-06-14T00:30:21;9.67;;;4.50;;
30247;SDS011;17063;50.892;4.702;2023-06-14T00:32:49;9.27;;;4.77;;
30247;SDS011;17063;50.892;4.702;2023-06-14T00:35:16;10.63;;;4.23;;
30247;SDS011;17063;50.892;4.702;2023-06-14T00:37:43;6.30;;;4.80;;
30247;SDS011;17063;50.892;4.702;2023-06-14T00:40:10;8.37;;;5.03;;
30247;SDS011;17063;50.892;4.702;2023-06-14T00:42:37;15.73;;;5.27;;
30247;SDS011;17063;50.892;4.702;2023-06-14T00:45:05;6.23;;;4.70;;
30247;SDS011;17063;50.892;4.702;2023-06-14T00:47:33;6.27;;;5.00;;
30247;SDS011;17063;50.892;4.702;2023-06-14T00:50:00;7.07;;;4.97;;
30247;SDS011;17063;50.892;4.702;2023-06-14T00:52:28;6.80;;;4.37;;
30247;SDS011;17063;50.892;4.702;2023-06-14T00:54:57;6.70;;;5.37;;
30247;SDS011;17063;50.892;4.702;2023-06-14T00:57:24;10.83;;;5.10;;
30247;SDS011;17063;50.892;4.702;2023-06-14T00:59:51;13.37;;;4.97;;
30247;SDS011;17063;50.892;4.702;2023-06-14T01:02:18;7.03;;;4.70;;
30247;SDS011;17063;50.892;4.702;2023-06-14T01:04:46;8.20;;;4.60;;
30247;SDS011;17063;50.892;4.702;2023-06-14T01:07:25;7.97;;;4.60;;
30247;SDS011;17063;50.892;4.702;2023-06-14T01:13:05;7.30;;;4.60;;
30247;SDS011;17063;50.892;4.702;2023-06-14T01:15:37;5.77;;;4.63;;
30247;SDS011;17063;50.892;4.702;2023-06-14T01:18:04;4.80;;;4.30;;
30247;SDS011;17063;50.892;4.702;2023-06-14T01:20:33;7.03;;;4.87;;
30247;SDS011;17063;50.892;4.702;2023-06-14T01:23:04;7.57;;;4.57;;
30247;SDS011;17063;50.892;4.702;2023-06-14T01:25:31;7.97;;;4.07;;
30247;SDS011;17063;50.892;4.702;2023-06-14T01:28:00;5.73;;;5.00;;
30247;SDS011;17063;50.892;4.702;2023-06-14T01:30:38;7.63;;;4.90;;
30247;SDS011;17063;50.892;4.702;2023-06-14T01:33:06;7.60;;;4.40;;
30247;SDS011;17063;50.892;4.702;2023-06-14T01:35:33;7.90;;;4.57;;
30247;SDS011;17063;50.892;4.702;2023-06-14T01:38:01;5.43;;;4.17;;
30247;SDS011;17063;50.892;4.702;2023-06-14T01:40:29;6.07;;;4.37;;
30247;SDS011;17063;50.892;4.702;2023-06-14T01:42:57;11.07;;;5.37;;
30247;SDS011;17063;50.892;4.702;2023-06-14T01:45:24;7.73;;;4.70;;
30247;SDS011;17063;50.892;4.702;2023-06-14T01:47:51;7.47;;;4.83;;
30247;SDS011;17063;50.892;4.702;2023-06-14T01:50:20;10.27;;;4.70;;
30247;SDS011;17063;50.892;4.702;2023-06-14T01:52:47;6.60;;;5.00;;
30247;SDS011;17063;50.892;4.702;2023-06-14T01:55:13;7.73;;;5.10;;
30247;SDS011;17063;50.892;4.702;2023-06-14T01:57:40;7.57;;;4.90;;
30247;SDS011;17063;50.892;4.702;2023-06-14T02:00:15;8.60;;;4.93;;
30247;SDS011;17063;50.892;4.702;2023-06-14T02:03:09;7.03;;;5.23;;
30247;SDS011;17063;50.892;4.702;2023-06-14T02:05:36;12.07;;;5.57;;
30247;SDS011;17063;50.892;4.702;2023-06-14T02:08:06;12.77;;;4.87;;
30247;SDS011;17063;50.892;4.702;2023-06-14T02:10:38;10.33;;;5.60;;
30247;SDS011;17063;50.892;4.702;2023-06-14T02:13:06;8.27;;;5.40;;
30247;SDS011;17063;50.892;4.702;2023-06-14T02:15:35;15.63;;;5.70;;
30247;SDS011;17063;50.892;4.702;2023-06-14T02:18:03;13.47;;;5.43;;
30247;SDS011;17063;50.892;4.702;2023-06-14T02:20:32;6.93;;;4.80;;
30247;SDS011;17063;50.892;4.702;2023-06-14T02:22:59;9.63;;;5.60;;
30247;SDS011;17063;50.892;4.702;2023-06-14T02:25:26;7.80;;;5.27;;
30247;SDS011;17063;50.892;4.702;2023-06-14T02:27:56;10.87;;;4.90;;
30247;SDS011;17063;50.892;4.702;2023-06-14T02:30:23;8.53;;;5.03;;
30247;SDS011;17063;50.892;4.702;2023-06-14T02:32:50;8.57;;;5.50;;
30247;SDS011;17063;50.892;4.702;2023-06-14T02:35:19;10.47;;;4.67;;
30247;SDS011;17063;50.892;4.702;2023-06-14T02:37:47;8.33;;;5.57;;
30247;SDS011;17063;50.892;4.702;2023-06-14T02:40:14;9.03;;;5.40;;
30247;SDS011;17063;50.892;4.702;2023-06-14T02:42:41;11.07;;;5.43;;
30247;SDS011;17063;50.892;4.702;2023-06-14T02:45:08;9.53;;;5.37;;
30247;SDS011;17063;50.892;4.702;2023-06-14T02:47:36;8.83;;;4.93;;
30247;SDS011;17063;50.892;4.702;2023-06-14T02:50:03;8.23;;;5.43;;
30247;SDS011;17063;50.892;4.702;2023-06-14T02:52:31;10.07;;;5.60;;
30247;SDS011;17063;50.892;4.702;2023-06-14T02:55:24;8.13;;;4.97;;
30247;SDS011;17063;50.892;4.702;2023-06-14T02:57:51;9.10;;;5.47;;
30247;SDS011;17063;50.892;4.702;2023-06-14T03:00:20;8.60;;;5.30;;
30247;SDS011;17063;50.892;4.702;2023-06-14T03:02:47;7.73;;;5.43;;
30247;SDS011;17063;50.892;4.702;2023-06-14T03:05:14;11.50;;;5.47;;
30247;SDS011;17063;50.892;4.702;2023-06-14T03:07:41;8.00;;;5.33;;
30247;SDS011;17063;50.892;4.702;2023-06-14T03:10:12;8.57;;;5.73;;
30247;SDS011;17063;50.892;4.702;2023-06-14T03:12:42;7.53;;;5.60;;
30247;SDS011;17063;50.892;4.702;2023-06-14T03:15:10;11.10;;;5.93;;
30247;SDS011;17063;50.892;4.702;2023-06-14T03:17:44;11.63;;;5.93;;
30247;SDS011;17063;50.892;4.702;2023-06-14T03:20:14;7.47;;;5.23;;
30247;SDS011;17063;50.892;4.702;2023-06-14T03:22:43;8.57;;;6.03;;
30247;SDS011;17063;50.892;4.702;2023-06-14T03:25:13;11.10;;;6.10;;
30247;SDS011;17063;50.892;4.702;2023-06-14T03:27:43;7.47;;;5.70;;
30247;SDS011;17063;50.892;4.702;2023-06-14T03:30:11;9.00;;;5.77;;
30247;SDS011;17063;50.892;4.702;2023-06-14T03:32:39;7.23;;;5.17;;
30247;SDS011;17063;50.892;4.702;2023-06-14T03:35:07;9.97;;;6.13;;
30247;SDS011;17063;50.892;4.702;2023-06-14T03:37:35;15.13;;;6.67;;
30247;SDS011;17063;50.892;4.702;2023-06-14T03:40:03;9.37;;;6.27;;
30247;SDS011;17063;50.892;4.702;2023-06-14T03:42:37;10.43;;;5.67;;
30247;SDS011;17063;50.892;4.702;2023-06-14T03:45:05;10.17;;;6.30;;
30247;SDS011;17063;50.892;4.702;2023-06-14T03:47:34;7.90;;;5.53;;
30247;SDS011;17063;50.892;4.702;2023-06-14T03:50:04;12.77;;;6.00;;
30247;SDS011;17063;50.892;4.702;2023-06-14T03:52:33;10.97;;;5.47;;
30247;SDS011;17063;50.892;4.702;2023-06-14T03:55:00;8.20;;;5.77;;
30247;SDS011;17063;50.892;4.702;2023-06-14T03:57:31;11.13;;;5.57;;
30247;SDS011;17063;50.892;4.702;2023-06-14T03:59:58;7.50;;;5.57;;
30247;SDS011;17063;50.892;4.702;2023-06-14T04:02:26;9.30;;;5.40;;
30247;SDS011;17063;50.892;4.702;2023-06-14T04:04:55;7.80;;;5.50;;
30247;SDS011;17063;50.892;4.702;2023-06-14T04:07:23;9.67;;;5.73;;
30247;SDS011;17063;50.892;4.702;2023-06-14T04:09:49;12.40;;;6.00;;
30247;SDS011;17063;50.892;4.702;2023-06-14T04:12:19;9.23;;;5.47;;
30247;SDS011;17063;50.892;4.702;2023-06-14T04:14:46;11.73;;;5.97;;
30247;SDS011;17063;50.892;4.702;2023-06-14T04:17:13;14.13;;;5.27;;
30247;SDS011;17063;50.892;4.702;2023-06-14T04:19:43;8.83;;;5.50;;
30247;SDS011;17063;50.892;4.702;2023-06-14T04:22:10;6.63;;;5.30;;
30247;SDS011;17063;50.892;4.702;2023-06-14T04:24:38;8.97;;;5.60;;
30247;SDS011;17063;50.892;4.702;2023-06-14T04:27:05;9.37;;;5.90;;
30247;SDS011;17063;50.892;4.702;2023-06-14T04:29:34;8.67;;;5.97;;
30247;SDS011;17063;50.892;4.702;2023-06-14T04:32:06;9.50;;;5.77;;
30247;SDS011;17063;50.892;4.702;2023-06-14T04:34:37;8.50;;;5.80;;
30247;SDS011;17063;50.892;4.702;2023-06-14T04:37:07;7.70;;;5.40;;
30247;SDS011;17063;50.892;4.702;2023-06-14T04:39:37;11.80;;;5.30;;
30247;SDS011;17063;50.892;4.702;2023-06-14T04:42:04;9.70;;;6.57;;
30247;SDS011;17063;50.892;4.702;2023-06-14T04:44:34;11.97;;;5.67;;
30247;SDS011;17063;50.892;4.702;2023-06-14T04:47:03;7.67;;;5.67;;
30247;SDS011;17063;50.892;4.702;2023-06-14T04:49:30;10.80;;;5.63;;
30247;SDS011;17063;50.892;4.702;2023-06-14T04:51:59;9.37;;;5.37;;
30247;SDS011;17063;50.892;4.702;2023-06-14T04:54:40;8.80;;;6.10;;
30247;SDS011;17063;50.892;4.702;2023-06-14T04:57:12;10.13;;;5.87;;
30247;SDS011;17063;50.892;4.702;2023-06-14T04:59:42;9.50;;;5.90;;
30247;SDS011;17063;50.892;4.702;2023-06-14T05:02:11;7.83;;;5.67;;
30247;SDS011;17063;50.892;4.702;2023-06-14T05:04:38;11.27;;;5.77;;
30247;SDS011;17063;50.892;4.702;2023-06-14T05:07:09;9.43;;;6.00;;
30247;SDS011;17063;50.892;4.702;2023-06-14T05:09:37;10.27;;;6.13;;
30247;SDS011;17063;50.892;4.702;2023-06-14T05:12:04;9.90;;;6.77;;
30247;SDS011;17063;50.892;4.702;2023-06-14T05:14:34;11.33;;;5.97;;
30247;SDS011;17063;50.892;4.702;2023-06-14T05:17:02;9.20;;;6.20;;
30247;SDS011;17063;50.892;4.702;2023-06-14T05:19:29;11.40;;;6.20;;
30247;SDS011;17063;50.892;4.702;2023-06-14T05:21:56;14.33;;;6.60;;
30247;SDS011;17063;50.892;4.702;2023-06-14T05:24:23;10.23;;;6.67;;
30247;SDS011;17063;50.892;4.702;2023-06-14T05:26:52;10.40;;;6.80;;
30247;SDS011;17063;50.892;4.702;2023-06-14T05:29:19;11.63;;;6.60;;
30247;SDS011;17063;50.892;4.702;2023-06-14T05:31:46;9.67;;;6.77;;
30247;SDS011;17063;50.892;4.702;2023-06-14T05:34:12;11.67;;;6.00;;
30247;SDS011;17063;50.892;4.702;2023-06-14T05:36:39;15.63;;;6.27;;
30247;SDS011;17063;50.892;4.702;2023-06-14T05:39:08;9.47;;;5.90;;
30247;SDS011;17063;50.892;4.702;2023-06-14T05:41:37;8.33;;;6.03;;
30247;SDS011;17063;50.892;4.702;2023-06-14T05:44:03;8.13;;;6.40;;
30247;SDS011;17063;50.892;4.702;2023-06-14T05:46:30;12.90;;;6.03;;
30247;SDS011;17063;50.892;4.702;2023-06-14T05:48:57;9.97;;;6.17;;
30247;SDS011;17063;50.892;4.702;2023-06-14T05:51:24;7.63;;;6.00;;
30247;SDS011;17063;50.892;4.702;2023-06-14T05:53:52;10.27;;;6.20;;
30247;SDS011;17063;50.892;4.702;2023-06-14T05:56:19;13.73;;;6.40;;
30247;SDS011;17063;50.892;4.702;2023-06-14T05:58:46;12.30;;;6.17;;
30247;SDS011;17063;50.892;4.702;2023-06-14T06:01:14;14.80;;;7.03;;
30247;SDS011;17063;50.892;4.702;2023-06-14T06:03:41;10.50;;;6.57;;
30247;SDS011;17063;50.892;4.702;2023-06-14T06:06:13;14.13;;;6.83;;
30247;SDS011;17063;50.892;4.702;2023-06-14T06:08:40;12.17;;;6.17;;
30247;SDS011;17063;50.892;4.702;2023-06-14T06:11:07;10.90;;;5.83;;
30247;SDS011;17063;50.892;4.702;2023-06-14T06:13:34;7.67;;;5.43;;
30247;SDS011;17063;50.892;4.702;2023-06-14T06:16:03;12.93;;;6.37;;
30247;SDS011;17063;50.892;4.702;2023-06-14T06:18:31;11.00;;;5.83;;
30247;SDS011;17063;50.892;4.702;2023-06-14T06:20:58;8.97;;;6.10;;
30247;SDS011;17063;50.892;4.702;2023-06-14T06:23:25;13.63;;;6.17;;
30247;SDS011;17063;50.892;4.702;2023-06-14T06:25:52;8.50;;;6.00;;
30247;SDS011;17063;50.892;4.702;2023-06-14T06:28:19;10.77;;;5.73;;
30247;SDS011;17063;50.892;4.702;2023-06-14T06:30:46;9.63;;;6.43;;
30247;SDS011;17063;50.892;4.702;2023-06-14T06:33:13;8.13;;;6.47;;
30247;SDS011;17063;50.892;4.702;2023-06-14T06:35:40;8.87;;;5.67;;
30247;SDS011;17063;50.892;4.702;2023-06-14T06:38:07;9.63;;;5.80;;
30247;SDS011;17063;50.892;4.702;2023-06-14T06:40:36;8.17;;;5.63;;
30247;SDS011;17063;50.892;4.702;2023-06-14T06:43:03;11.07;;;5.80;;
30247;SDS011;17063;50.892;4.702;2023-06-14T06:45:37;9.17;;;6.53;;
30247;SDS011;17063;50.892;4.702;2023-06-14T06:48:04;11.63;;;5.90;;
30247;SDS011;17063;50.892;4.702;2023-06-14T06:50:31;10.87;;;5.87;;
30247;SDS011;17063;50.892;4.702;2023-06-14T06:52:59;9.03;;;6.00;;
30247;SDS011;17063;50.892;4.702;2023-06-14T06:55:27;7.37;;;5.83;;
30247;SDS011;17063;50.892;4.702;2023-06-14T06:57:53;11.67;;;6.40;;
30247;SDS011;17063;50.892;4.702;2023-06-14T07:02:10;10.87;;;5.83;;
30247;SDS011;17063;50.892;4.702;2023-06-14T07:05:40;7.30;;;5.50;;
30247;SDS011;17063;50.892;4.702;2023-06-14T07:08:07;11.77;;;6.40;;
30247;SDS011;17063;50.892;4.702;2023-06-14T07:10:34;7.87;;;5.87;;
30247;SDS011;17063;50.892;4.702;2023-06-14T07:13:01;12.13;;;6.37;;
30247;SDS011;17063;50.892;4.702;2023-06-14T07:15:28;9.47;;;5.97;;
30247;SDS011;17063;50.892;4.702;2023-06-14T07:17:55;8.23;;;5.77;;
30247;SDS011;17063;50.892;4.702;2023-06-14T07:20:26;8.63;;;5.87;;
30247;SDS011;17063;50.892;4.702;2023-06-14T07:22:53;9.07;;;5.60;;
30247;SDS011;17063;50.892;4.702;2023-06-14T07:25:20;9.97;;;5.30;;
30247;SDS011;17063;50.892;4.702;2023-06-14T07:27:48;8.60;;;5.47;;
30247;SDS011;17063;50.892;4.702;2023-06-14T07:30:16;8.10;;;5.47;;
30247;SDS011;17063;50.892;4.702;2023-06-14T07:32:43;9.67;;;6.47;;
30247;SDS011;17063;50.892;4.702;2023-06-14T07:35:14;11.67;;;6.50;;
30247;SDS011;17063;50.892;4.702;2023-06-14T07:37:42;11.43;;;5.50;;
30247;SDS011;17063;50.892;4.702;2023-06-14T07:40:09;10.47;;;5.47;;
30247;SDS011;17063;50.892;4.702;2023-06-14T07:43:00;11.17;;;5.93;;
30247;SDS011;17063;50.892;4.702;2023-06-14T07:45:35;17.20;;;5.37;;
30247;SDS011;17063;50.892;4.702;2023-06-14T07:48:11;8.57;;;5.80;;
30247;SDS011;17063;50.892;4.702;2023-06-14T07:50:39;9.23;;;5.90;;
30247;SDS011;17063;50.892;4.702;2023-06-14T07:53:07;10.80;;;5.70;;
30247;SDS011;17063;50.892;4.702;2023-06-14T07:55:34;8.60;;;5.50;;
30247;SDS011;17063;50.892;4.702;2023-06-14T07:58:18;6.87;;;5.60;;
30247;SDS011;17063;50.892;4.702;2023-06-14T08:00:47;15.83;;;5.83;;
30247;SDS011;17063;50.892;4.702;2023-06-14T08:03:14;11.80;;;5.80;;
30247;SDS011;17063;50.892;4.702;2023-06-14T08:05:41;10.33;;;5.50;;
30247;SDS011;17063;50.892;4.702;2023-06-14T08:08:08;7.00;;;5.70;;
30247;SDS011;17063;50.892;4.702;2023-06-14T08:10:35;10.23;;;5.13;;
30247;SDS011;17063;50.892;4.702;2023-06-14T08:13:02;9.27;;;5.10;;
30247;SDS011;17063;50.892;4.702;2023-06-14T08:15:30;10.43;;;5.50;;
30247;SDS011;17063;50.892;4.702;2023-06-14T08:17:57;10.00;;;5.17;;
30247;SDS011;17063;50.892;4.702;2023-06-14T08:20:26;13.47;;;5.00;;
30247;SDS011;17063;50.892;4.702;2023-06-14T08:22:53;7.87;;;5.23;;
30247;SDS011;17063;50.892;4.702;2023-06-14T08:25:23;8.50;;;5.27;;
30247;SDS011;17063;50.892;4.702;2023-06-14T08:27:50;10.90;;;5.37;;
30247;SDS011;17063;50.892;4.702;2023-06-14T08:30:17;10.83;;;5.20;;
30247;SDS011;17063;50.892;4.702;2023-06-14T08:32:44;8.70;;;5.63;;
30247;SDS011;17063;50.892;4.702;2023-06-14T08:35:11;10.17;;;5.77;;
30247;SDS011;17063;50.892;4.702;2023-06-14T08:37:39;9.77;;;5.20;;
30247;SDS011;17063;50.892;4.702;2023-06-14T08:42:43;12.03;;;5.07;;
30247;SDS011;17063;50.892;4.702;2023-06-14T08:45:10;11.93;;;6.27;;
30247;SDS011;17063;50.892;4.702;2023-06-14T08:47:38;15.33;;;5.83;;
30247;SDS011;17063;50.892;4.702;2023-06-14T08:50:07;11.53;;;6.00;;
30247;SDS011;17063;50.892;4.702;2023-06-14T08:52:54;13.87;;;5.33;;
30247;SDS011;17063;50.892;4.702;2023-06-14T08:55:29;12.60;;;5.40;;
30247;SDS011;17063;50.892;4.702;2023-06-14T08:58:02;11.73;;;5.37;;
30247;SDS011;17063;50.892;4.702;2023-06-14T09:00:30;8.13;;;5.20;;
30247;SDS011;17063;50.892;4.702;2023-06-14T09:02:59;9.33;;;4.73;;
30247;SDS011;17063;50.892;4.702;2023-06-14T09:05:27;9.37;;;4.97;;
30247;SDS011;17063;50.892;4.702;2023-06-14T09:07:55;8.10;;;4.80;;
30247;SDS011;17063;50.892;4.702;2023-06-14T09:10:23;12.13;;;5.43;;
30247;SDS011;17063;50.892;4.702;2023-06-14T09:12:53;11.53;;;4.60;;
30247;SDS011;17063;50.892;4.702;2023-06-14T09:15:20;13.77;;;5.70;;
30247;SDS011;17063;50.892;4.702;2023-06-14T09:17:47;10.83;;;4.83;;
30247;SDS011;17063;50.892;4.702;2023-06-14T09:20:18;8.87;;;5.63;;
30247;SDS011;17063;50.892;4.702;2023-06-14T09:22:46;7.70;;;5.00;;
30247;SDS011;17063;50.892;4.702;2023-06-14T09:25:16;11.40;;;4.90;;
30247;SDS011;17063;50.892;4.702;2023-06-14T09:28:05;16.50;;;4.93;;
30247;SDS011;17063;50.892;4.702;2023-06-14T09:30:33;14.77;;;4.57;;
30247;SDS011;17063;50.892;4.702;2023-06-14T09:33:00;13.60;;;4.70;;
30247;SDS011;17063;50.892;4.702;2023-06-14T09:35:27;6.47;;;4.00;;
30247;SDS011;17063;50.892;4.702;2023-06-14T09:37:57;7.53;;;4.40;;
30247;SDS011;17063;50.892;4.702;2023-06-14T09:40:24;5.67;;;4.53;;
30247;SDS011;17063;50.892;4.702;2023-06-14T09:42:54;10.20;;;3.80;;
30247;SDS011;17063;50.892;4.702;2023-06-14T09:45:26;8.83;;;4.10;;
30247;SDS011;17063;50.892;4.702;2023-06-14T09:47:56;6.70;;;4.30;;
30247;SDS011;17063;50.892;4.702;2023-06-14T09:50:34;10.63;;;4.10;;
30247;SDS011;17063;50.892;4.702;2023-06-14T09:53:02;8.53;;;4.10;;
30247;SDS011;17063;50.892;4.702;2023-06-14T09:55:34;11.50;;;4.10;;
30247;SDS011;17063;50.892;4.702;2023-06-14T09:58:06;8.87;;;4.00;;
30247;SDS011;17063;50.892;4.702;2023-06-14T10:00:35;6.87;;;4.20;;
30247;SDS011;17063;50.892;4.702;2023-06-14T10:03:13;5.57;;;3.77;;
30247;SDS011;17063;50.892;4.702;2023-06-14T10:05:45;8.57;;;4.50;;
30247;SDS011;17063;50.892;4.702;2023-06-14T10:08:14;18.10;;;4.20;;
30247;SDS011;17063;50.892;4.702;2023-06-14T10:10:43;10.53;;;4.60;;
30247;SDS011;17063;50.892;4.702;2023-06-14T10:13:11;4.83;;;3.80;;
30247;SDS011;17063;50.892;4.702;2023-06-14T10:23:49;9.53;;;3.77;;
30247;SDS011;17063;50.892;4.702;2023-06-14T10:26:23;11.50;;;4.30;;
30247;SDS011;17063;50.892;4.702;2023-06-14T10:29:10;5.27;;;4.07;;
30247;SDS011;17063;50.892;4.702;2023-06-14T10:31:49;7.63;;;4.03;;
30247;SDS011;17063;50.892;4.702;2023-06-14T10:34:23;14.60;;;4.67;;
30247;SDS011;17063;50.892;4.702;2023-06-14T10:37:05;5.87;;;3.80;;
30247;SDS011;17063;50.892;4.702;2023-06-14T10:42:08;11.53;;;4.20;;
30247;SDS011;17063;50.892;4.702;2023-06-14T10:47:06;7.83;;;3.77;;
30247;SDS011;17063;50.892;4.702;2023-06-14T10:49:57;8.73;;;3.97;;
30247;SDS011;17063;50.892;4.702;2023-06-14T10:52:32;9.43;;;3.80;;
30247;SDS011;17063;50.892;4.702;2023-06-14T10:57:39;11.07;;;3.80;;
30247;SDS011;17063;50.892;4.702;2023-06-14T11:00:20;5.80;;;3.20;;
30247;SDS011;17063;50.892;4.702;2023-06-14T11:05:55;7.00;;;3.20;;
30247;SDS011;17063;50.892;4.702;2023-06-14T11:11:05;6.73;;;3.30;;
30247;SDS011;17063;50.892;4.702;2023-06-14T11:13:32;7.33;;;3.60;;
30247;SDS011;17063;50.892;4.702;2023-06-14T11:15:59;6.87;;;3.00;;
30247;SDS011;17063;50.892;4.702;2023-06-14T11:18:28;9.37;;;3.10;;
30247;SDS011;17063;50.892;4.702;2023-06-14T11:20:55;6.20;;;3.60;;
30247;SDS011;17063;50.892;4.702;2023-06-14T11:23:22;8.27;;;3.23;;
30247;SDS011;17063;50.892;4.702;2023-06-14T11:25:53;7.10;;;3.60;;
30247;SDS011;17063;50.892;4.702;2023-06-14T11:28:21;8.13;;;3.50;;
30247;SDS011;17063;50.892;4.702;2023-06-14T11:30:59;7.83;;;3.60;;
30247;SDS011;17063;50.892;4.702;2023-06-14T11:33:27;6.27;;;3.43;;
30247;SDS011;17063;50.892;4.702;2023-06-14T11:35:54;9.67;;;3.00;;
30247;SDS011;17063;50.892;4.702;2023-06-14T11:38:21;3.77;;;3.10;;
30247;SDS011;17063;50.892;4.702;2023-06-14T11:40:48;5.53;;;3.47;;
30247;SDS011;17063;50.892;4.702;2023-06-14T11:43:15;7.13;;;3.13;;
30247;SDS011;17063;50.892;4.702;2023-06-14T11:45:43;5.27;;;3.10;;
30247;SDS011;17063;50.892;4.702;2023-06-14T11:48:36;6.10;;;3.40;;
30247;SDS011;17063;50.892;4.702;2023-06-14T11:51:09;5.90;;;3.30;;
30247;SDS011;17063;50.892;4.702;2023-06-14T11:53:36;11.97;;;3.50;;
30247;SDS011;17063;50.892;4.702;2023-06-14T11:56:03;4.17;;;3.10;;
30247;SDS011;17063;50.892;4.702;2023-06-14T11:58:30;5.00;;;2.97;;
30247;SDS011;17063;50.892;4.702;2023-06-14T12:00:57;5.47;;;3.03;;
30247;SDS011;17063;50.892;4.702;2023-06-14T12:03:25;4.87;;;3.13;;
30247;SDS011;17063;50.892;4.702;2023-06-14T12:08:37;7.20;;;3.07;;
30247;SDS011;17063;50.892;4.702;2023-06-14T12:11:12;7.57;;;3.43;;
30247;SDS011;17063;50.892;4.702;2023-06-14T12:13:42;5.93;;;2.87;;
30247;SDS011;17063;50.892;4.702;2023-06-14T12:16:10;6.83;;;2.90;;
30247;SDS011;17063;50.892;4.702;2023-06-14T12:18:39;5.07;;;3.13;;
30247;SDS011;17063;50.892;4.702;2023-06-14T12:21:08;4.53;;;2.90;;
30247;SDS011;17063;50.892;4.702;2023-06-14T12:23:42;6.70;;;2.70;;
30247;SDS011;17063;50.892;4.702;2023-06-14T12:26:12;5.17;;;2.87;;
30247;SDS011;17063;50.892;4.702;2023-06-14T12:28:43;7.40;;;2.83;;
30247;SDS011;17063;50.892;4.702;2023-06-14T12:31:11;2.70;;;2.50;;
30247;SDS011;17063;50.892;4.702;2023-06-14T12:33:39;4.83;;;3.20;;
30247;SDS011;17063;50.892;4.702;2023-06-14T12:36:09;4.03;;;2.70;;
30247;SDS011;17063;50.892;4.702;2023-06-14T12:38:36;8.30;;;2.93;;
30247;SDS011;17063;50.892;4.702;2023-06-14T12:41:03;5.47;;;2.50;;
30247;SDS011;17063;50.892;4.702;2023-06-14T12:43:31;5.77;;;2.43;;
30247;SDS011;17063;50.892;4.702;2023-06-14T12:45:58;4.83;;;2.93;;
30247;SDS011;17063;50.892;4.702;2023-06-14T12:48:25;5.40;;;2.70;;
30247;SDS011;17063;50.892;4.702;2023-06-14T12:50:53;6.50;;;2.63;;
30247;SDS011;17063;50.892;4.702;2023-06-14T12:53:20;6.60;;;2.83;;
30247;SDS011;17063;50.892;4.702;2023-06-14T12:55:48;5.27;;;2.30;;
30247;SDS011;17063;50.892;4.702;2023-06-14T12:58:15;5.40;;;2.37;;
30247;SDS011;17063;50.892;4.702;2023-06-14T13:00:43;2.47;;;2.10;;
30247;SDS011;17063;50.892;4.702;2023-06-14T13:03:11;6.80;;;2.33;;
30247;SDS011;17063;50.892;4.702;2023-06-14T13:05:38;4.10;;;2.20;;
30247;SDS011;17063;50.892;4.702;2023-06-14T13:08:07;3.40;;;2.10;;
30247;SDS011;17063;50.892;4.702;2023-06-14T13:10:35;6.37;;;2.17;;
30247;SDS011;17063;50.892;4.702;2023-06-14T13:13:02;9.03;;;2.00;;
30247;SDS011;17063;50.892;4.702;2023-06-14T13:15:30;5.67;;;1.93;;
30247;SDS011;17063;50.892;4.702;2023-06-14T13:17:57;4.40;;;2.00;;
30247;SDS011;17063;50.892;4.702;2023-06-14T13:20:24;4.20;;;1.97;;
30247;SDS011;17063;50.892;4.702;2023-06-14T13:22:53;4.83;;;1.83;;
30247;SDS011;17063;50.892;4.702;2023-06-14T13:25:20;2.87;;;2.07;;
30247;SDS011;17063;50.892;4.702;2023-06-14T13:27:48;5.77;;;2.13;;
30247;SDS011;17063;50.892;4.702;2023-06-14T13:30:16;1.60;;;1.50;;
30247;SDS011;17063;50.892;4.702;2023-06-14T13:32:47;3.63;;;1.70;;
30247;SDS011;17063;50.892;4.702;2023-06-14T13:35:17;5.50;;;1.67;;
30247;SDS011;17063;50.892;4.702;2023-06-14T13:37:47;5.63;;;2.10;;
30247;SDS011;17063;50.892;4.702;2023-06-14T13:40:15;3.00;;;1.93;;
30247;SDS011;17063;50.892;4.702;2023-06-14T13:42:50;6.50;;;1.83;;
30247;SDS011;17063;50.892;4.702;2023-06-14T13:45:18;1.97;;;1.70;;
30247;SDS011;17063;50.892;4.702;2023-06-14T13:47:47;2.47;;;1.90;;
30247;SDS011;17063;50.892;4.702;2023-06-14T13:50:15;1.57;;;1.47;;
30247;SDS011;17063;50.892;4.702;2023-06-14T13:52:45;4.07;;;1.67;;
30247;SDS011;17063;50.892;4.702;2023-06-14T13:55:23;1.83;;;1.20;;
30247;SDS011;17063;50.892;4.702;2023-06-14T13:57:50;5.47;;;1.83;;
30247;SDS011;17063;50.892;4.702;2023-06-14T14:00:23;5.43;;;1.70;;
30247;SDS011;17063;50.892;4.702;2023-06-14T14:02:51;4.53;;;1.60;;
30247;SDS011;17063;50.892;4.702;2023-06-14T14:05:23;9.70;;;2.00;;
30247;SDS011;17063;50.892;4.702;2023-06-14T14:07:55;6.97;;;1.53;;
30247;SDS011;17063;50.892;4.702;2023-06-14T14:10:36;2.93;;;1.83;;
30247;SDS011;17063;50.892;4.702;2023-06-14T14:13:05;1.60;;;1.50;;
30247;SDS011;17063;50.892;4.702;2023-06-14T14:15:40;6.30;;;1.70;;
30247;SDS011;17063;50.892;4.702;2023-06-14T14:18:12;4.00;;;1.47;;
30247;SDS011;17063;50.892;4.702;2023-06-14T14:23:57;4.00;;;1.87;;
30247;SDS011;17063;50.892;4.702;2023-06-14T14:26:25;5.10;;;1.80;;
30247;SDS011;17063;50.892;4.702;2023-06-14T14:28:52;3.37;;;1.73;;
30247;SDS011;17063;50.892;4.702;2023-06-14T14:31:19;4.33;;;1.93;;
30247;SDS011;17063;50.892;4.702;2023-06-14T14:39:45;4.23;;;1.70;;
30247;SDS011;17063;50.892;4.702;2023-06-14T14:42:15;4.83;;;2.07;;
30247;SDS011;17063;50.892;4.702;2023-06-14T14:47:53;5.20;;;1.63;;
30247;SDS011;17063;50.892;4.702;2023-06-14T14:50:22;4.37;;;1.93;;
30247;SDS011;17063;50.892;4.702;2023-06-14T14:52:48;2.40;;;1.67;;
30247;SDS011;17063;50.892;4.702;2023-06-14T14:55:17;6.20;;;1.70;;
30247;SDS011;17063;50.892;4.702;2023-06-14T15:00:38;5.33;;;1.97;;
30247;SDS011;17063;50.892;4.702;2023-06-14T15:03:05;3.77;;;2.00;;
30247;SDS011;17063;50.892;4.702;2023-06-14T15:05:32;7.50;;;2.07;;
30247;SDS011;17063;50.892;4.702;2023-06-14T15:07:59;5.43;;;2.00;;
30247;SDS011;17063;50.892;4.702;2023-06-14T15:10:26;3.80;;;1.80;;
30247;SDS011;17063;50.892;4.702;2023-06-14T15:12:53;1.77;;;1.67;;
30247;SDS011;17063;50.892;4.702;2023-06-14T15:15:23;6.40;;;2.03;;
30247;SDS011;17063;50.892;4.702;2023-06-14T15:17:51;7.37;;;1.83;;
30247;SDS011;17063;50.892;4.702;2023-06-14T15:20:18;4.77;;;2.00;;
30247;SDS011;17063;50.892;4.702;2023-06-14T15:22:45;2.30;;;1.70;;
30247;SDS011;17063;50.892;4.702;2023-06-14T15:25:16;3.77;;;1.87;;
30247;SDS011;17063;50.892;4.702;2023-06-14T15:33:41;4.03;;;1.87;;
30247;SDS011;17063;50.892;4.702;2023-06-14T15:36:09;2.73;;;1.47;;
30247;SDS011;17063;50.892;4.702;2023-06-14T15:38:37;4.20;;;1.80;;
30247;SDS011;17063;50.892;4.702;2023-06-14T15:44:31;6.57;;;1.60;;
30247;SDS011;17063;50.892;4.702;2023-06-14T15:47:01;4.03;;;1.90;;
30247;SDS011;17063;50.892;4.702;2023-06-14T16:01:12;5.90;;;1.80;;
30247;SDS011;17063;50.892;4.702;2023-06-14T16:03:39;1.90;;;1.80;;